sensor_id;sensor_type;location;lat;lon;timestamp;temperature;humidity
6333;DHT22;3199;49.102;8.856;2022-07-21T00:00:03;20.80;99.90
6333;DHT22;3199;49.102;8.856;2022-07-21T00:02:30;20.70;99.90
6333;DHT22;3199;49.102;8.856;2022-07-21T00:04:56;20.60;99.90
6333;DHT22;3199;49.102;8.856;2022-07-21T00:07:21;20.60;99.90
6333;DHT22;3199;49.102;8.856;2022-07-21T00:09:47;20.50;99.90
6333;DHT22;3199;49.102;8.856;2022-07-21T00:12:12;20.50;99.90
6333;DHT22;3199;49.102;8.856;2022-07-21T00:14:38;20.50;99.90
6333;DHT22;3199;49.102;8.856;2022-07-21T00:17:03;20.50;99.90
6333;DHT22;3199;49.102;8.856;2022-07-21T00:19:29;20.50;99.90
6333;DHT22;3199;49.102;8.856;2022-07-21T00:21:55;20.50;99.90
6333;DHT22;3199;49.102;8.856;2022-07-21T00:24:20;20.60;99.90
6333;DHT22;3199;49.102;8.856;2022-07-21T00:26:46;20.70;99.90
6333;DHT22;3199;49.102;8.856;2022-07-21T00:29:11;20.70;99.90
6333;DHT22;3199;49.102;8.856;2022-07-21T00:31:37;20.70;99.90
6333;DHT22;3199;49.102;8.856;2022-07-21T00:34:03;20.70;99.90
6333;DHT22;3199;49.102;8.856;2022-07-21T00:36:28;20.80;99.90
6333;DHT22;3199;49.102;8.856;2022-07-21T00:38:54;20.80;99.90
6333;DHT22;3199;49.102;8.856;2022-07-21T00:41:19;20.90;99.90
6333;DHT22;3199;49.102;8.856;2022-07-21T00:43:45;20.90;99.90
6333;DHT22;3199;49.102;8.856;2022-07-21T00:46:10;21.00;99.90
6333;DHT22;3199;49.102;8.856;2022-07-21T00:48:36;21.00;99.90
6333;DHT22;3199;49.102;8.856;2022-07-21T00:51:01;21.10;99.90
6333;DHT22;3199;49.102;8.856;2022-07-21T00:53:27;21.10;99.90
6333;DHT22;3199;49.102;8.856;2022-07-21T00:55:53;21.10;99.90
6333;DHT22;3199;49.102;8.856;2022-07-21T00:58:19;21.10;99.90
6333;DHT22;3199;49.102;8.856;2022-07-21T01:00:44;21.10;99.90
6333;DHT22;3199;49.102;8.856;2022-07-21T01:03:10;21.10;99.90
6333;DHT22;3199;49.102;8.856;2022-07-21T01:05:36;21.00;99.90
6333;DHT22;3199;49.102;8.856;2022-07-21T01:08:01;20.90;99.90
6333;DHT22;3199;49.102;8.856;2022-07-21T01:10:30;20.80;99.90
6333;DHT22;3199;49.102;8.856;2022-07-21T01:12:58;20.70;99.90
6333;DHT22;3199;49.102;8.856;2022-07-21T01:15:23;20.70;99.90
6333;DHT22;3199;49.102;8.856;2022-07-21T01:17:49;20.60;99.90
6333;DHT22;3199;49.102;8.856;2022-07-21T01:20:17;20.60;99.90
6333;DHT22;3199;49.102;8.856;2022-07-21T01:22:44;20.50;99.90
6333;DHT22;3199;49.102;8.856;2022-07-21T01:25:11;20.40;99.90
6333;DHT22;3199;49.102;8.856;2022-07-21T01:27:37;20.40;99.90
6333;DHT22;3199;49.102;8.856;2022-07-21T01:30:05;20.40;99.90
6333;DHT22;3199;49.102;8.856;2022-07-21T01:32:35;20.40;99.90
6333;DHT22;3199;49.102;8.856;2022-07-21T01:35:02;20.30;99.90
6333;DHT22;3199;49.102;8.856;2022-07-21T01:37:30;20.30;99.90
6333;DHT22;3199;49.102;8.856;2022-07-21T01:39:55;20.30;99.90
6333;DHT22;3199;49.102;8.856;2022-07-21T01:42:50;20.20;99.90
6333;DHT22;3199;49.102;8.856;2022-07-21T01:45:17;20.10;99.90
6333;DHT22;3199;49.102;8.856;2022-07-21T01:47:42;20.10;99.90
6333;DHT22;3199;49.102;8.856;2022-07-21T01:50:08;20.10;99.90
6333;DHT22;3199;49.102;8.856;2022-07-21T01:52:34;20.10;99.90
6333;DHT22;3199;49.102;8.856;2022-07-21T01:54:59;20.10;99.90
6333;DHT22;3199;49.102;8.856;2022-07-21T01:57:25;20.00;99.90
6333;DHT22;3199;49.102;8.856;2022-07-21T01:59:50;20.00;99.90
6333;DHT22;3199;49.102;8.856;2022-07-21T02:02:16;20.00;99.90
6333;DHT22;3199;49.102;8.856;2022-07-21T02:04:46;20.00;99.90
6333;DHT22;3199;49.102;8.856;2022-07-21T02:07:12;20.00;99.90
6333;DHT22;3199;49.102;8.856;2022-07-21T02:09:38;20.00;99.90
6333;DHT22;3199;49.102;8.856;2022-07-21T02:12:04;20.00;99.90
6333;DHT22;3199;49.102;8.856;2022-07-21T02:14:29;20.00;99.90
6333;DHT22;3199;49.102;8.856;2022-07-21T02:16:55;20.10;99.90
6333;DHT22;3199;49.102;8.856;2022-07-21T02:19:20;20.10;99.90
6333;DHT22;3199;49.102;8.856;2022-07-21T02:21:46;20.10;99.90
6333;DHT22;3199;49.102;8.856;2022-07-21T02:24:11;20.20;99.90
6333;DHT22;3199;49.102;8.856;2022-07-21T02:26:37;20.10;99.90
6333;DHT22;3199;49.102;8.856;2022-07-21T02:29:02;20.20;99.90
6333;DHT22;3199;49.102;8.856;2022-07-21T02:31:28;20.20;99.90
6333;DHT22;3199;49.102;8.856;2022-07-21T02:33:53;20.20;99.90
6333;DHT22;3199;49.102;8.856;2022-07-21T02:36:19;20.20;99.90
6333;DHT22;3199;49.102;8.856;2022-07-21T02:38:44;20.10;99.90
6333;DHT22;3199;49.102;8.856;2022-07-21T02:41:10;20.10;99.90
6333;DHT22;3199;49.102;8.856;2022-07-21T02:43:35;20.10;99.90
6333;DHT22;3199;49.102;8.856;2022-07-21T02:46:01;20.10;99.90
6333;DHT22;3199;49.102;8.856;2022-07-21T02:48:27;20.20;99.90
6333;DHT22;3199;49.102;8.856;2022-07-21T02:50:52;20.20;99.90
6333;DHT22;3199;49.102;8.856;2022-07-21T02:53:19;20.20;99.90
6333;DHT22;3199;49.102;8.856;2022-07-21T02:55:49;20.20;99.90
6333;DHT22;3199;49.102;8.856;2022-07-21T02:58:19;20.20;99.90
6333;DHT22;3199;49.102;8.856;2022-07-21T03:00:51;20.10;99.90
6333;DHT22;3199;49.102;8.856;2022-07-21T03:03:17;20.10;99.90
6333;DHT22;3199;49.102;8.856;2022-07-21T03:05:43;20.00;99.90
6333;DHT22;3199;49.102;8.856;2022-07-21T03:08:09;20.00;99.90
6333;DHT22;3199;49.102;8.856;2022-07-21T03:10:35;20.00;99.90
6333;DHT22;3199;49.102;8.856;2022-07-21T03:13:01;20.00;99.90
6333;DHT22;3199;49.102;8.856;2022-07-21T03:15:27;20.00;99.90
6333;DHT22;3199;49.102;8.856;2022-07-21T03:17:57;20.00;99.90
6333;DHT22;3199;49.102;8.856;2022-07-21T03:20:23;20.20;99.90
6333;DHT22;3199;49.102;8.856;2022-07-21T03:22:49;20.40;99.90
6333;DHT22;3199;49.102;8.856;2022-07-21T03:25:15;20.60;99.90
6333;DHT22;3199;49.102;8.856;2022-07-21T03:27:40;20.70;99.90
6333;DHT22;3199;49.102;8.856;2022-07-21T03:30:07;20.90;99.90
6333;DHT22;3199;49.102;8.856;2022-07-21T03:32:33;21.00;99.90
6333;DHT22;3199;49.102;8.856;2022-07-21T03:34:59;21.20;99.90
6333;DHT22;3199;49.102;8.856;2022-07-21T03:37:25;21.20;99.90
6333;DHT22;3199;49.102;8.856;2022-07-21T03:39:50;21.30;99.90
6333;DHT22;3199;49.102;8.856;2022-07-21T03:42:16;21.40;99.90
6333;DHT22;3199;49.102;8.856;2022-07-21T03:44:41;21.30;99.90
6333;DHT22;3199;49.102;8.856;2022-07-21T03:47:07;21.10;99.90
6333;DHT22;3199;49.102;8.856;2022-07-21T03:49:33;21.00;99.90
6333;DHT22;3199;49.102;8.856;2022-07-21T03:51:58;20.90;99.90
6333;DHT22;3199;49.102;8.856;2022-07-21T03:54:24;20.80;99.90
6333;DHT22;3199;49.102;8.856;2022-07-21T03:56:49;20.70;99.90
6333;DHT22;3199;49.102;8.856;2022-07-21T03:59:15;20.70;99.90
6333;DHT22;3199;49.102;8.856;2022-07-21T04:01:40;20.60;99.90
6333;DHT22;3199;49.102;8.856;2022-07-21T04:04:06;20.50;99.90
6333;DHT22;3199;49.102;8.856;2022-07-21T04:06:31;20.50;99.90
6333;DHT22;3199;49.102;8.856;2022-07-21T04:08:57;20.50;99.90
6333;DHT22;3199;49.102;8.856;2022-07-21T04:11:22;20.50;99.90
6333;DHT22;3199;49.102;8.856;2022-07-21T04:13:48;20.70;99.90
6333;DHT22;3199;49.102;8.856;2022-07-21T04:16:13;20.90;99.90
6333;DHT22;3199;49.102;8.856;2022-07-21T04:18:39;21.00;99.90
6333;DHT22;3199;49.102;8.856;2022-07-21T04:21:04;21.10;99.90
6333;DHT22;3199;49.102;8.856;2022-07-21T04:23:30;21.20;99.90
6333;DHT22;3199;49.102;8.856;2022-07-21T04:25:57;21.30;99.90
6333;DHT22;3199;49.102;8.856;2022-07-21T04:28:22;21.30;99.90
6333;DHT22;3199;49.102;8.856;2022-07-21T04:30:48;21.40;99.90
6333;DHT22;3199;49.102;8.856;2022-07-21T04:33:13;21.30;99.90
6333;DHT22;3199;49.102;8.856;2022-07-21T04:35:39;21.10;99.90
6333;DHT22;3199;49.102;8.856;2022-07-21T04:38:04;20.90;99.90
6333;DHT22;3199;49.102;8.856;2022-07-21T04:40:30;20.80;99.90
6333;DHT22;3199;49.102;8.856;2022-07-21T04:42:55;20.80;99.90
6333;DHT22;3199;49.102;8.856;2022-07-21T04:45:21;20.80;99.90
6333;DHT22;3199;49.102;8.856;2022-07-21T04:47:51;20.90;99.90
6333;DHT22;3199;49.102;8.856;2022-07-21T04:50:20;21.00;99.90
6333;DHT22;3199;49.102;8.856;2022-07-21T04:52:46;21.00;99.90
6333;DHT22;3199;49.102;8.856;2022-07-21T04:55:13;21.00;99.90
6333;DHT22;3199;49.102;8.856;2022-07-21T04:57:40;20.90;99.90
6333;DHT22;3199;49.102;8.856;2022-07-21T05:00:09;20.90;99.90
6333;DHT22;3199;49.102;8.856;2022-07-21T05:02:35;21.00;99.90
6333;DHT22;3199;49.102;8.856;2022-07-21T05:05:00;20.90;99.90
6333;DHT22;3199;49.102;8.856;2022-07-21T05:07:27;20.80;99.90
6333;DHT22;3199;49.102;8.856;2022-07-21T05:09:52;20.70;99.90
6333;DHT22;3199;49.102;8.856;2022-07-21T05:12:18;20.60;99.90
6333;DHT22;3199;49.102;8.856;2022-07-21T05:14:43;20.70;99.90
6333;DHT22;3199;49.102;8.856;2022-07-21T05:17:09;20.70;99.90
6333;DHT22;3199;49.102;8.856;2022-07-21T05:19:34;20.60;99.90
6333;DHT22;3199;49.102;8.856;2022-07-21T05:22:00;20.60;99.90
6333;DHT22;3199;49.102;8.856;2022-07-21T05:24:25;20.60;99.90
6333;DHT22;3199;49.102;8.856;2022-07-21T05:26:51;20.50;99.90
6333;DHT22;3199;49.102;8.856;2022-07-21T05:29:16;20.50;99.90
6333;DHT22;3199;49.102;8.856;2022-07-21T05:31:42;20.50;99.90
6333;DHT22;3199;49.102;8.856;2022-07-21T05:34:07;20.40;99.90
6333;DHT22;3199;49.102;8.856;2022-07-21T05:36:33;20.30;99.90
6333;DHT22;3199;49.102;8.856;2022-07-21T05:38:58;20.40;99.90
6333;DHT22;3199;49.102;8.856;2022-07-21T05:41:24;20.40;99.90
6333;DHT22;3199;49.102;8.856;2022-07-21T05:43:49;20.70;99.90
6333;DHT22;3199;49.102;8.856;2022-07-21T05:46:15;21.20;99.90
6333;DHT22;3199;49.102;8.856;2022-07-21T05:48:40;21.50;99.90
6333;DHT22;3199;49.102;8.856;2022-07-21T05:51:06;21.50;99.90
6333;DHT22;3199;49.102;8.856;2022-07-21T05:53:32;21.50;99.90
6333;DHT22;3199;49.102;8.856;2022-07-21T05:55:57;21.60;99.90
6333;DHT22;3199;49.102;8.856;2022-07-21T05:58:23;22.20;99.90
6333;DHT22;3199;49.102;8.856;2022-07-21T06:00:50;22.60;99.90
6333;DHT22;3199;49.102;8.856;2022-07-21T06:03:34;23.30;99.90
6333;DHT22;3199;49.102;8.856;2022-07-21T06:06:00;24.00;99.90
6333;DHT22;3199;49.102;8.856;2022-07-21T06:08:25;24.80;99.90
6333;DHT22;3199;49.102;8.856;2022-07-21T06:10:51;25.30;99.90
6333;DHT22;3199;49.102;8.856;2022-07-21T06:13:16;25.70;99.90
6333;DHT22;3199;49.102;8.856;2022-07-21T06:15:42;26.00;99.90
6333;DHT22;3199;49.102;8.856;2022-07-21T06:18:07;26.20;99.90
6333;DHT22;3199;49.102;8.856;2022-07-21T06:20:33;26.40;99.90
6333;DHT22;3199;49.102;8.856;2022-07-21T06:22:58;26.50;99.90
6333;DHT22;3199;49.102;8.856;2022-07-21T06:25:24;26.60;99.90
6333;DHT22;3199;49.102;8.856;2022-07-21T06:27:49;26.80;99.90
6333;DHT22;3199;49.102;8.856;2022-07-21T06:30:15;27.30;99.90
6333;DHT22;3199;49.102;8.856;2022-07-21T06:32:40;27.80;99.90
6333;DHT22;3199;49.102;8.856;2022-07-21T06:35:06;28.60;99.90
6333;DHT22;3199;49.102;8.856;2022-07-21T06:37:32;29.20;99.30
6333;DHT22;3199;49.102;8.856;2022-07-21T06:39:57;29.10;98.30
6333;DHT22;3199;49.102;8.856;2022-07-21T06:42:23;29.00;97.70
6333;DHT22;3199;49.102;8.856;2022-07-21T06:44:49;28.80;97.50
6333;DHT22;3199;49.102;8.856;2022-07-21T06:47:14;29.20;96.50
6333;DHT22;3199;49.102;8.856;2022-07-21T06:49:40;29.70;95.20
6333;DHT22;3199;49.102;8.856;2022-07-21T06:52:05;30.00;94.60
6333;DHT22;3199;49.102;8.856;2022-07-21T06:54:31;30.20;93.20
6333;DHT22;3199;49.102;8.856;2022-07-21T06:56:56;30.30;92.90
6333;DHT22;3199;49.102;8.856;2022-07-21T06:59:22;30.40;91.70
6333;DHT22;3199;49.102;8.856;2022-07-21T07:01:47;30.40;91.40
6333;DHT22;3199;49.102;8.856;2022-07-21T07:04:13;30.30;90.40
6333;DHT22;3199;49.102;8.856;2022-07-21T07:06:38;30.00;90.40
6333;DHT22;3199;49.102;8.856;2022-07-21T07:09:04;30.00;90.90
6333;DHT22;3199;49.102;8.856;2022-07-21T07:11:29;30.40;90.20
6333;DHT22;3199;49.102;8.856;2022-07-21T07:13:55;30.70;88.80
6333;DHT22;3199;49.102;8.856;2022-07-21T07:16:20;30.70;86.20
6333;DHT22;3199;49.102;8.856;2022-07-21T07:18:46;30.60;86.60
6333;DHT22;3199;49.102;8.856;2022-07-21T07:21:11;30.50;86.40
6333;DHT22;3199;49.102;8.856;2022-07-21T07:23:38;31.10;85.90
6333;DHT22;3199;49.102;8.856;2022-07-21T07:26:04;31.30;82.30
6333;DHT22;3199;49.102;8.856;2022-07-21T07:28:29;30.90;81.60
6333;DHT22;3199;49.102;8.856;2022-07-21T07:30:55;31.50;83.60
6333;DHT22;3199;49.102;8.856;2022-07-21T07:33:20;31.90;82.00
6333;DHT22;3199;49.102;8.856;2022-07-21T07:35:47;32.00;82.30
6333;DHT22;3199;49.102;8.856;2022-07-21T07:38:14;31.90;80.50
6333;DHT22;3199;49.102;8.856;2022-07-21T07:40:40;31.80;82.00
6333;DHT22;3199;49.102;8.856;2022-07-21T07:43:06;31.80;80.60
6333;DHT22;3199;49.102;8.856;2022-07-21T07:45:32;31.30;80.40
6333;DHT22;3199;49.102;8.856;2022-07-21T07:47:57;31.20;80.50
6333;DHT22;3199;49.102;8.856;2022-07-21T07:50:23;31.00;81.30
6333;DHT22;3199;49.102;8.856;2022-07-21T07:52:48;31.10;83.10
6333;DHT22;3199;49.102;8.856;2022-07-21T07:55:14;30.50;80.90
6333;DHT22;3199;49.102;8.856;2022-07-21T07:57:41;30.00;82.50
6333;DHT22;3199;49.102;8.856;2022-07-21T08:00:13;29.50;83.90
6333;DHT22;3199;49.102;8.856;2022-07-21T08:02:39;29.00;84.80
6333;DHT22;3199;49.102;8.856;2022-07-21T08:05:05;28.10;86.50
6333;DHT22;3199;49.102;8.856;2022-07-21T08:07:33;27.30;90.00
6333;DHT22;3199;49.102;8.856;2022-07-21T08:09:58;26.60;91.50
6333;DHT22;3199;49.102;8.856;2022-07-21T08:12:24;26.20;93.10
6333;DHT22;3199;49.102;8.856;2022-07-21T08:14:50;26.70;93.80
6333;DHT22;3199;49.102;8.856;2022-07-21T08:17:16;27.30;93.10
6333;DHT22;3199;49.102;8.856;2022-07-21T08:19:42;28.00;91.90
6333;DHT22;3199;49.102;8.856;2022-07-21T08:22:08;28.50;91.30
6333;DHT22;3199;49.102;8.856;2022-07-21T08:24:33;28.90;90.40
6333;DHT22;3199;49.102;8.856;2022-07-21T08:26:59;29.50;89.10
6333;DHT22;3199;49.102;8.856;2022-07-21T08:29:24;30.30;88.70
6333;DHT22;3199;49.102;8.856;2022-07-21T08:31:50;30.80;83.60
6333;DHT22;3199;49.102;8.856;2022-07-21T08:34:15;30.90;80.60
6333;DHT22;3199;49.102;8.856;2022-07-21T08:36:41;30.80;80.90
6333;DHT22;3199;49.102;8.856;2022-07-21T08:39:06;30.70;81.60
6333;DHT22;3199;49.102;8.856;2022-07-21T08:41:32;31.10;80.70
6333;DHT22;3199;49.102;8.856;2022-07-21T08:43:58;31.20;81.90
6333;DHT22;3199;49.102;8.856;2022-07-21T08:46:23;31.60;78.00
6333;DHT22;3199;49.102;8.856;2022-07-21T08:48:50;32.20;76.30
6333;DHT22;3199;49.102;8.856;2022-07-21T08:51:17;32.80;74.50
6333;DHT22;3199;49.102;8.856;2022-07-21T08:53:46;32.90;71.40
6333;DHT22;3199;49.102;8.856;2022-07-21T08:56:12;32.50;69.20
6333;DHT22;3199;49.102;8.856;2022-07-21T08:58:38;32.30;69.90
6333;DHT22;3199;49.102;8.856;2022-07-21T09:01:04;31.80;71.70
6333;DHT22;3199;49.102;8.856;2022-07-21T09:03:30;31.50;72.20
6333;DHT22;3199;49.102;8.856;2022-07-21T09:06:12;31.60;74.20
6333;DHT22;3199;49.102;8.856;2022-07-21T09:08:42;32.00;71.30
6333;DHT22;3199;49.102;8.856;2022-07-21T09:11:33;31.90;71.00
6333;DHT22;3199;49.102;8.856;2022-07-21T09:14:06;31.50;70.60
6333;DHT22;3199;49.102;8.856;2022-07-21T09:18:59;30.60;71.40
6333;DHT22;3199;49.102;8.856;2022-07-21T09:21:25;31.00;73.50
6333;DHT22;3199;49.102;8.856;2022-07-21T09:23:50;31.40;71.90
6333;DHT22;3199;49.102;8.856;2022-07-21T09:26:16;31.40;69.80
6333;DHT22;3199;49.102;8.856;2022-07-21T09:28:42;31.20;69.10
6333;DHT22;3199;49.102;8.856;2022-07-21T09:31:10;31.00;70.00
6333;DHT22;3199;49.102;8.856;2022-07-21T09:33:43;30.50;71.20
6333;DHT22;3199;49.102;8.856;2022-07-21T09:36:16;30.30;72.20
6333;DHT22;3199;49.102;8.856;2022-07-21T09:38:52;29.90;70.90
6333;DHT22;3199;49.102;8.856;2022-07-21T09:41:22;29.40;73.60
6333;DHT22;3199;49.102;8.856;2022-07-21T09:43:53;28.70;76.00
6333;DHT22;3199;49.102;8.856;2022-07-21T09:46:21;28.60;77.20
6333;DHT22;3199;49.102;8.856;2022-07-21T09:48:49;29.00;78.20
6333;DHT22;3199;49.102;8.856;2022-07-21T09:51:27;29.40;76.10
6333;DHT22;3199;49.102;8.856;2022-07-21T09:54:08;29.80;75.80
6333;DHT22;3199;49.102;8.856;2022-07-21T09:56:37;30.20;75.60
6333;DHT22;3199;49.102;8.856;2022-07-21T09:59:04;30.40;73.00
6333;DHT22;3199;49.102;8.856;2022-07-21T10:01:30;30.60;74.30
6333;DHT22;3199;49.102;8.856;2022-07-21T10:03:57;30.70;71.40
6333;DHT22;3199;49.102;8.856;2022-07-21T10:06:29;30.70;72.20
6333;DHT22;3199;49.102;8.856;2022-07-21T10:08:55;30.70;71.40
6333;DHT22;3199;49.102;8.856;2022-07-21T10:11:22;30.60;71.30
6333;DHT22;3199;49.102;8.856;2022-07-21T10:13:48;30.50;72.30
6333;DHT22;3199;49.102;8.856;2022-07-21T10:16:14;30.50;72.00
6333;DHT22;3199;49.102;8.856;2022-07-21T10:24:13;30.80;70.20
6333;DHT22;3199;49.102;8.856;2022-07-21T10:26:39;30.70;69.30
6333;DHT22;3199;49.102;8.856;2022-07-21T10:30:04;30.80;70.20
6333;DHT22;3199;49.102;8.856;2022-07-21T10:32:35;31.10;69.40
6333;DHT22;3199;49.102;8.856;2022-07-21T10:35:28;31.60;66.90
6333;DHT22;3199;49.102;8.856;2022-07-21T10:37:54;31.70;67.70
6333;DHT22;3199;49.102;8.856;2022-07-21T10:45:33;31.00;70.00
6333;DHT22;3199;49.102;8.856;2022-07-21T10:48:00;31.10;71.80
6333;DHT22;3199;49.102;8.856;2022-07-21T10:50:40;31.10;68.70
6333;DHT22;3199;49.102;8.856;2022-07-21T10:53:16;31.10;68.30
6333;DHT22;3199;49.102;8.856;2022-07-21T10:55:52;31.10;65.80
6333;DHT22;3199;49.102;8.856;2022-07-21T10:58:40;31.10;66.00
6333;DHT22;3199;49.102;8.856;2022-07-21T11:03:42;30.80;65.80
6333;DHT22;3199;49.102;8.856;2022-07-21T11:06:16;30.90;65.90
6333;DHT22;3199;49.102;8.856;2022-07-21T11:08:44;30.90;65.30
6333;DHT22;3199;49.102;8.856;2022-07-21T11:19:32;32.00;64.30
6333;DHT22;3199;49.102;8.856;2022-07-21T11:24:44;32.50;61.60
6333;DHT22;3199;49.102;8.856;2022-07-21T11:27:13;32.70;61.20
6333;DHT22;3199;49.102;8.856;2022-07-21T11:29:41;32.80;59.70
6333;DHT22;3199;49.102;8.856;2022-07-21T11:32:07;32.60;59.00
6333;DHT22;3199;49.102;8.856;2022-07-21T11:34:41;31.80;59.20
6333;DHT22;3199;49.102;8.856;2022-07-21T11:37:08;31.20;59.60
6333;DHT22;3199;49.102;8.856;2022-07-21T11:39:34;30.60;61.90
6333;DHT22;3199;49.102;8.856;2022-07-21T11:42:05;30.50;63.80
6333;DHT22;3199;49.102;8.856;2022-07-21T11:44:31;30.50;63.90
6333;DHT22;3199;49.102;8.856;2022-07-21T11:46:58;30.70;62.30
6333;DHT22;3199;49.102;8.856;2022-07-21T11:49:25;30.80;62.30
6333;DHT22;3199;49.102;8.856;2022-07-21T11:52:01;30.90;61.30
6333;DHT22;3199;49.102;8.856;2022-07-21T11:54:44;31.20;61.40
6333;DHT22;3199;49.102;8.856;2022-07-21T11:57:11;31.20;60.80
6333;DHT22;3199;49.102;8.856;2022-07-21T11:59:37;31.60;62.20
6333;DHT22;3199;49.102;8.856;2022-07-21T12:02:14;31.70;59.70
6333;DHT22;3199;49.102;8.856;2022-07-21T12:05:05;31.70;58.80
6333;DHT22;3199;49.102;8.856;2022-07-21T12:07:40;31.60;57.90
6333;DHT22;3199;49.102;8.856;2022-07-21T12:10:11;31.30;59.00
6333;DHT22;3199;49.102;8.856;2022-07-21T12:12:42;31.10;59.50
6333;DHT22;3199;49.102;8.856;2022-07-21T12:15:14;31.00;59.50
6333;DHT22;3199;49.102;8.856;2022-07-21T12:17:52;30.60;59.30
6333;DHT22;3199;49.102;8.856;2022-07-21T12:22:54;31.40;61.00
6333;DHT22;3199;49.102;8.856;2022-07-21T12:25:35;31.40;59.40
6333;DHT22;3199;49.102;8.856;2022-07-21T12:28:02;31.50;60.50
6333;DHT22;3199;49.102;8.856;2022-07-21T12:30:36;31.50;59.90
6333;DHT22;3199;49.102;8.856;2022-07-21T12:33:05;31.80;60.50
6333;DHT22;3199;49.102;8.856;2022-07-21T12:35:32;31.70;58.10
6333;DHT22;3199;49.102;8.856;2022-07-21T12:38:12;31.70;58.50
6333;DHT22;3199;49.102;8.856;2022-07-21T12:40:46;31.80;57.20
6333;DHT22;3199;49.102;8.856;2022-07-21T12:43:18;31.50;58.20
6333;DHT22;3199;49.102;8.856;2022-07-21T12:45:46;31.50;58.80
6333;DHT22;3199;49.102;8.856;2022-07-21T12:48:13;31.30;57.20
6333;DHT22;3199;49.102;8.856;2022-07-21T12:50:40;31.50;58.90
6333;DHT22;3199;49.102;8.856;2022-07-21T12:53:13;31.60;56.90
6333;DHT22;3199;49.102;8.856;2022-07-21T12:55:39;31.90;57.70
6333;DHT22;3199;49.102;8.856;2022-07-21T12:58:05;31.90;56.30
6333;DHT22;3199;49.102;8.856;2022-07-21T13:00:31;32.00;57.30
6333;DHT22;3199;49.102;8.856;2022-07-21T13:02:58;31.90;56.30
6333;DHT22;3199;49.102;8.856;2022-07-21T13:05:25;31.80;56.30
6333;DHT22;3199;49.102;8.856;2022-07-21T13:07:51;31.60;56.80
6333;DHT22;3199;49.102;8.856;2022-07-21T13:10:18;31.50;57.20
6333;DHT22;3199;49.102;8.856;2022-07-21T13:12:44;31.50;56.10
6333;DHT22;3199;49.102;8.856;2022-07-21T13:15:10;31.60;56.10
6333;DHT22;3199;49.102;8.856;2022-07-21T13:17:36;31.80;56.70
6333;DHT22;3199;49.102;8.856;2022-07-21T13:20:02;32.00;56.40
6333;DHT22;3199;49.102;8.856;2022-07-21T13:22:28;32.10;56.40
6333;DHT22;3199;49.102;8.856;2022-07-21T13:24:54;31.60;55.80
6333;DHT22;3199;49.102;8.856;2022-07-21T13:27:20;31.40;57.90
6333;DHT22;3199;49.102;8.856;2022-07-21T13:29:45;31.10;57.60
6333;DHT22;3199;49.102;8.856;2022-07-21T13:32:11;31.00;58.40
6333;DHT22;3199;49.102;8.856;2022-07-21T13:34:36;30.90;58.20
6333;DHT22;3199;49.102;8.856;2022-07-21T13:37:02;30.90;58.40
6333;DHT22;3199;49.102;8.856;2022-07-21T13:39:28;31.20;58.80
6333;DHT22;3199;49.102;8.856;2022-07-21T13:41:54;31.20;57.80
6333;DHT22;3199;49.102;8.856;2022-07-21T13:44:21;31.20;58.20
6333;DHT22;3199;49.102;8.856;2022-07-21T13:46:46;31.10;58.00
6333;DHT22;3199;49.102;8.856;2022-07-21T13:49:12;31.00;58.80
6333;DHT22;3199;49.102;8.856;2022-07-21T13:51:37;30.90;58.10
6333;DHT22;3199;49.102;8.856;2022-07-21T13:54:03;30.90;58.30
6333;DHT22;3199;49.102;8.856;2022-07-21T13:56:28;31.10;57.80
6333;DHT22;3199;49.102;8.856;2022-07-21T13:58:54;31.20;57.20
6333;DHT22;3199;49.102;8.856;2022-07-21T14:01:20;31.50;57.00
6333;DHT22;3199;49.102;8.856;2022-07-21T14:03:46;31.50;57.40
6333;DHT22;3199;49.102;8.856;2022-07-21T14:06:12;31.00;57.30
6333;DHT22;3199;49.102;8.856;2022-07-21T14:08:38;30.40;58.20
6333;DHT22;3199;49.102;8.856;2022-07-21T14:11:05;30.40;58.70
6333;DHT22;3199;49.102;8.856;2022-07-21T14:13:31;30.30;58.30
6333;DHT22;3199;49.102;8.856;2022-07-21T14:15:56;30.40;58.90
6333;DHT22;3199;49.102;8.856;2022-07-21T14:18:22;30.50;58.50
6333;DHT22;3199;49.102;8.856;2022-07-21T14:20:47;30.60;58.90
6333;DHT22;3199;49.102;8.856;2022-07-21T14:23:20;30.80;57.80
6333;DHT22;3199;49.102;8.856;2022-07-21T14:25:47;31.00;56.40
6333;DHT22;3199;49.102;8.856;2022-07-21T14:28:13;30.90;56.50
6333;DHT22;3199;49.102;8.856;2022-07-21T14:30:38;30.70;57.70
6333;DHT22;3199;49.102;8.856;2022-07-21T14:33:04;30.60;58.20
6333;DHT22;3199;49.102;8.856;2022-07-21T14:35:29;30.40;58.10
6333;DHT22;3199;49.102;8.856;2022-07-21T14:37:55;30.30;58.20
6333;DHT22;3199;49.102;8.856;2022-07-21T14:40:21;30.30;57.90
6333;DHT22;3199;49.102;8.856;2022-07-21T14:42:48;30.20;58.80
6333;DHT22;3199;49.102;8.856;2022-07-21T14:45:14;30.30;57.50
6333;DHT22;3199;49.102;8.856;2022-07-21T14:47:40;30.30;57.60
6333;DHT22;3199;49.102;8.856;2022-07-21T14:50:06;30.30;57.80
6333;DHT22;3199;49.102;8.856;2022-07-21T14:52:32;30.20;58.40
6333;DHT22;3199;49.102;8.856;2022-07-21T14:54:57;30.10;59.20
6333;DHT22;3199;49.102;8.856;2022-07-21T14:57:23;30.20;57.80
6333;DHT22;3199;49.102;8.856;2022-07-21T14:59:48;30.30;57.80
6333;DHT22;3199;49.102;8.856;2022-07-21T15:02:14;30.30;58.20
6333;DHT22;3199;49.102;8.856;2022-07-21T15:04:39;30.30;57.10
6333;DHT22;3199;49.102;8.856;2022-07-21T15:07:05;30.10;57.20
6333;DHT22;3199;49.102;8.856;2022-07-21T15:09:31;30.00;57.10
6333;DHT22;3199;49.102;8.856;2022-07-21T15:11:57;29.80;57.40
6333;DHT22;3199;49.102;8.856;2022-07-21T15:14:22;29.70;57.70
6333;DHT22;3199;49.102;8.856;2022-07-21T15:16:48;29.70;58.00
6333;DHT22;3199;49.102;8.856;2022-07-21T15:19:13;29.70;58.20
6333;DHT22;3199;49.102;8.856;2022-07-21T15:21:39;29.70;58.20
6333;DHT22;3199;49.102;8.856;2022-07-21T15:24:06;29.70;58.30
6333;DHT22;3199;49.102;8.856;2022-07-21T15:26:31;29.70;58.30
6333;DHT22;3199;49.102;8.856;2022-07-21T15:28:57;29.70;58.20
6333;DHT22;3199;49.102;8.856;2022-07-21T15:31:23;29.70;58.50
6333;DHT22;3199;49.102;8.856;2022-07-21T15:33:49;29.70;58.80
6333;DHT22;3199;49.102;8.856;2022-07-21T15:36:15;29.50;58.70
6333;DHT22;3199;49.102;8.856;2022-07-21T15:38:40;29.40;58.40
6333;DHT22;3199;49.102;8.856;2022-07-21T15:41:06;29.50;58.60
6333;DHT22;3199;49.102;8.856;2022-07-21T15:43:31;29.50;58.60
6333;DHT22;3199;49.102;8.856;2022-07-21T15:45:57;29.50;58.60
6333;DHT22;3199;49.102;8.856;2022-07-21T15:48:23;29.50;58.90
6333;DHT22;3199;49.102;8.856;2022-07-21T15:50:48;29.30;59.50
6333;DHT22;3199;49.102;8.856;2022-07-21T15:53:14;29.20;58.80
6333;DHT22;3199;49.102;8.856;2022-07-21T15:55:39;29.30;59.50
6333;DHT22;3199;49.102;8.856;2022-07-21T15:58:05;29.40;59.70
6333;DHT22;3199;49.102;8.856;2022-07-21T16:00:31;29.60;59.40
6333;DHT22;3199;49.102;8.856;2022-07-21T16:02:57;29.80;59.10
6333;DHT22;3199;49.102;8.856;2022-07-21T16:05:24;29.90;58.60
6333;DHT22;3199;49.102;8.856;2022-07-21T16:07:51;29.90;58.20
6333;DHT22;3199;49.102;8.856;2022-07-21T16:10:18;29.90;57.80
6333;DHT22;3199;49.102;8.856;2022-07-21T16:12:44;29.80;57.60
6333;DHT22;3199;49.102;8.856;2022-07-21T16:15:11;29.70;58.20
6333;DHT22;3199;49.102;8.856;2022-07-21T16:17:37;29.50;58.70
6333;DHT22;3199;49.102;8.856;2022-07-21T16:20:07;29.40;59.20
6333;DHT22;3199;49.102;8.856;2022-07-21T16:22:34;29.20;59.50
6333;DHT22;3199;49.102;8.856;2022-07-21T16:24:59;29.10;59.90
6333;DHT22;3199;49.102;8.856;2022-07-21T16:27:25;29.10;60.00
6333;DHT22;3199;49.102;8.856;2022-07-21T16:29:50;28.90;60.00